Astana International Airport
UACC : now visible

Airfield :











YOU CAN JOIN US ON...

 
LOGIN :

Register | Disclaimer

   EN    FR    IT 

 









Legend :    VFR   Marginal VFR   IFR   Intensive IFR   Very Intensive IFR
Visi :
Ceiling :
>= 8 km
>= 3000ft
5 to 8 km
1000 to 3000 ft
1500m to 5 km
500 to 1000 ft
800 to 1500m
200 to 500 ft
< 800m
< 200 ft
Symbols :   Thunderstorms  Fog  Heavy snow  Heavy precipitations  Wind > 20 kt






- Airport Elevation : 1165 ft
- IATA code : TSE


UACC - Astana International

CURRENT METAR :
  • 241700Z 12004MPS 9999 -SN SCT011 OVC020 M06/M08 Q1033 R04/19//60 NOSIG RMK QFE743/0991

EXPIRED METARs :
  • 241630Z 12005MPS 9999 -SN SCT011 OVC020 M06/M08 Q1033 R04/19//60 NOSIG RMK QFE743/0991
  • 241600Z 10004MPS 9999 -SN SCT011 OVC020 M06/M08 Q1033 R04/19//60 NOSIG RMK QFE743/0991
  • 241530Z 11004MPS 9999 -SN OVC020 M06/M08 Q1033 R04/19//60 NOSIG RMK QFE743/0991
  • 241500Z 11004MPS 9999 OVC020 M06/M08 Q1033 R04/19//60 NOSIG RMK QFE743/0991
  • 241430Z 09003MPS 9000 OVC020 M06/M08 Q1033 R04/19//60 NOSIG RMK QFE743/0991

TAF TAF UACC
Valid from the 24 at 18:00 until the 25 at 18:00 UTC


241700Z 2418/2518 12004MPS 3100 BR BKN011 OVC020 TXM09/2511Z TNM18/2502Z
TEMPO 2418/2504 VRB02MPS 0200 -SG FZFG VV002
BECMG 2504/2506 9999 NSW
BECMG 2514/2516 15004MPS 3100 BR
UACC FIR / Asia



MET'MAP, your aeronautical weather chart ! - Copyright ORBIFLY December 2007 - Disclaimer

ORBIFLY MET'MAP TEAM :

Programming & Development : Alexandra Zaïnal
Concept & original design : Baudouin d'Aumeries
Assistance for programming : Marc-Olivier Méhu
Technical & hardware support : Manuel Goepfert

Contact : metmap@orbifly.com




SOURCES & CREDITS :

   NOAA       Earth
Advisory